sensor_id;sensor_type;location;lat;lon;timestamp;pressure;altitude;pressure_sealevel;temperature;humidity
59951;BME280;45812;53.540;9.774;2023-02-23T00:00:23;101151.84;;;7.71;100.00
59951;BME280;45812;53.540;9.774;2023-02-23T00:02:53;101157.44;;;7.68;100.00
59951;BME280;45812;53.540;9.774;2023-02-23T00:05:20;101146.28;;;7.65;100.00
59951;BME280;45812;53.540;9.774;2023-02-23T00:07:47;101147.63;;;7.59;100.00
59951;BME280;45812;53.540;9.774;2023-02-23T00:10:13;101142.34;;;7.59;100.00
59951;BME280;45812;53.540;9.774;2023-02-23T00:12:42;101139.97;;;7.56;100.00
59951;BME280;45812;53.540;9.774;2023-02-23T00:15:08;101140.94;;;7.55;100.00
59951;BME280;45812;53.540;9.774;2023-02-23T00:17:34;101141.06;;;7.53;100.00
59951;BME280;45812;53.540;9.774;2023-02-23T00:20:05;101136.88;;;7.51;100.00
59951;BME280;45812;53.540;9.774;2023-02-23T00:22:40;101144.13;;;7.49;100.00
59951;BME280;45812;53.540;9.774;2023-02-23T00:25:07;101140.63;;;7.48;100.00
59951;BME280;45812;53.540;9.774;2023-02-23T00:27:35;101151.09;;;7.50;100.00
59951;BME280;45812;53.540;9.774;2023-02-23T00:30:03;101140.63;;;7.48;100.00
59951;BME280;45812;53.540;9.774;2023-02-23T00:32:29;101147.88;;;7.46;100.00
59951;BME280;45812;53.540;9.774;2023-02-23T00:34:54;101143.56;;;7.45;100.00
59951;BME280;45812;53.540;9.774;2023-02-23T00:37:19;101152.34;;;7.46;100.00
59951;BME280;45812;53.540;9.774;2023-02-23T00:39:47;101149.56;;;7.47;100.00
59951;BME280;45812;53.540;9.774;2023-02-23T00:42:12;101149.44;;;7.49;100.00
59951;BME280;45812;53.540;9.774;2023-02-23T00:44:37;101146.91;;;7.47;100.00
59951;BME280;45812;53.540;9.774;2023-02-23T00:47:05;101148.59;;;7.48;100.00
59951;BME280;45812;53.540;9.774;2023-02-23T00:49:30;101145.66;;;7.51;100.00
59951;BME280;45812;53.540;9.774;2023-02-23T00:51:55;101141.34;;;7.50;100.00
59951;BME280;45812;53.540;9.774;2023-02-23T00:54:21;101147.47;;;7.51;100.00
59951;BME280;45812;53.540;9.774;2023-02-23T00:56:46;101151.09;;;7.50;100.00
59951;BME280;45812;53.540;9.774;2023-02-23T00:59:13;101146.06;;;7.47;100.00
59951;BME280;45812;53.540;9.774;2023-02-23T01:01:39;101146.06;;;7.47;100.00
59951;BME280;45812;53.540;9.774;2023-02-23T01:04:06;101149.00;;;7.44;100.00
59951;BME280;45812;53.540;9.774;2023-02-23T01:06:32;101150.66;;;7.45;100.00
59951;BME280;45812;53.540;9.774;2023-02-23T01:08:58;101151.50;;;7.45;100.00
59951;BME280;45812;53.540;9.774;2023-02-23T01:11:26;101152.22;;;7.47;100.00
59951;BME280;45812;53.540;9.774;2023-02-23T01:13:54;101155.00;;;7.46;100.00
59951;BME280;45812;53.540;9.774;2023-02-23T01:16:22;101155.56;;;7.49;100.00
59951;BME280;45812;53.540;9.774;2023-02-23T01:18:53;101153.88;;;7.48;100.00
59951;BME280;45812;53.540;9.774;2023-02-23T01:21:24;101148.72;;;7.47;100.00
59951;BME280;45812;53.540;9.774;2023-02-23T01:23:50;101145.81;;;7.50;100.00
59951;BME280;45812;53.540;9.774;2023-02-23T01:26:31;101145.09;;;7.48;100.00
59951;BME280;45812;53.540;9.774;2023-02-23T01:29:02;101133.66;;;7.47;100.00
59951;BME280;45812;53.540;9.774;2023-02-23T01:31:28;101147.06;;;7.46;100.00
59951;BME280;45812;53.540;9.774;2023-02-23T01:33:59;101143.56;;;7.45;100.00
59951;BME280;45812;53.540;9.774;2023-02-23T01:36:25;101135.47;;;7.47;100.00
59951;BME280;45812;53.540;9.774;2023-02-23T01:38:53;101139.09;;;7.46;100.00
59951;BME280;45812;53.540;9.774;2023-02-23T01:41:20;101138.97;;;7.47;100.00
59951;BME280;45812;53.540;9.774;2023-02-23T01:44:06;101136.47;;;7.46;100.00
59951;BME280;45812;53.540;9.774;2023-02-23T01:46:37;101140.91;;;7.45;100.00
59951;BME280;45812;53.540;9.774;2023-02-23T01:49:08;101144.13;;;7.49;100.00
59951;BME280;45812;53.540;9.774;2023-02-23T01:51:40;101145.81;;;7.50;100.00
59951;BME280;45812;53.540;9.774;2023-02-23T01:54:11;101139.97;;;7.56;100.00
59951;BME280;45812;53.540;9.774;2023-02-23T01:56:41;101141.34;;;7.60;100.00
59951;BME280;45812;53.540;9.774;2023-02-23T01:59:09;101138.47;;;7.63;100.00
59951;BME280;45812;53.540;9.774;2023-02-23T02:01:37;101136.94;;;7.70;100.00
59951;BME280;45812;53.540;9.774;2023-02-23T02:04:04;101131.91;;;7.77;100.00
59951;BME280;45812;53.540;9.774;2023-02-23T02:06:30;101135.72;;;7.84;100.00
59951;BME280;45812;53.540;9.774;2023-02-23T02:09:01;101133.91;;;7.84;100.00
59951;BME280;45812;53.540;9.774;2023-02-23T02:11:31;101132.22;;;7.93;100.00
59951;BME280;45812;53.540;9.774;2023-02-23T02:14:09;101133.19;;;7.92;100.00
59951;BME280;45812;53.540;9.774;2023-02-23T02:17:05;101134.22;;;8.01;100.00
59951;BME280;45812;53.540;9.774;2023-02-23T02:19:54;101140.34;;;8.01;100.00
59951;BME280;45812;53.540;9.774;2023-02-23T02:22:41;101136.59;;;8.04;100.00
59951;BME280;45812;53.540;9.774;2023-02-23T02:25:26;101133.94;;;8.04;100.00
59951;BME280;45812;53.540;9.774;2023-02-23T02:34:03;101139.06;;;7.86;100.00
59951;BME280;45812;53.540;9.774;2023-02-23T02:39:28;101140.13;;;7.64;100.00
59951;BME280;45812;53.540;9.774;2023-02-23T02:42:30;101133.69;;;7.57;100.00
59951;BME280;45812;53.540;9.774;2023-02-23T02:45:06;101136.31;;;7.47;100.00
59951;BME280;45812;53.540;9.774;2023-02-23T02:47:55;101137.28;;;7.46;100.00
59951;BME280;45812;53.540;9.774;2023-02-23T02:50:44;101135.03;;;7.42;100.00
59951;BME280;45812;53.540;9.774;2023-02-23T02:53:17;101135.97;;;7.31;100.00
59951;BME280;45812;53.540;9.774;2023-02-23T02:55:46;101128.88;;;7.32;100.00
59951;BME280;45812;53.540;9.774;2023-02-23T02:58:12;101139.47;;;7.32;100.00
59951;BME280;45812;53.540;9.774;2023-02-23T03:00:41;101129.84;;;7.31;100.00
59951;BME280;45812;53.540;9.774;2023-02-23T03:03:35;101127.19;;;7.31;100.00
59951;BME280;45812;53.540;9.774;2023-02-23T03:07:04;101125.38;;;7.31;100.00
59951;BME280;45812;53.540;9.774;2023-02-23T03:09:41;101125.53;;;7.29;100.00
59951;BME280;45812;53.540;9.774;2023-02-23T03:12:39;101122.03;;;7.29;100.00
59951;BME280;45812;53.540;9.774;2023-02-23T03:18:42;101117.16;;;7.34;100.00
59951;BME280;45812;53.540;9.774;2023-02-23T03:21:43;101117.31;;;7.33;100.00
59951;BME280;45812;53.540;9.774;2023-02-23T03:24:43;101115.34;;;7.35;100.00
59951;BME280;45812;53.540;9.774;2023-02-23T03:27:37;101125.16;;;7.44;100.00
59951;BME280;45812;53.540;9.774;2023-02-23T03:30:34;101120.28;;;7.49;100.00
59951;BME280;45812;53.540;9.774;2023-02-23T03:33:41;101124.34;;;7.53;100.00
59951;BME280;45812;53.540;9.774;2023-02-23T03:36:30;101114.44;;;7.55;100.00
59951;BME280;45812;53.540;9.774;2023-02-23T03:39:23;101122.81;;;7.60;100.00
59951;BME280;45812;53.540;9.774;2023-02-23T03:42:13;101128.09;;;7.60;100.00
59951;BME280;45812;53.540;9.774;2023-02-23T03:45:05;101127.28;;;7.59;100.00
59951;BME280;45812;53.540;9.774;2023-02-23T03:47:52;101124.63;;;7.59;100.00
59951;BME280;45812;53.540;9.774;2023-02-23T03:50:45;101133.25;;;7.52;100.00
59951;BME280;45812;53.540;9.774;2023-02-23T03:53:40;101132.00;;;7.56;100.00
59951;BME280;45812;53.540;9.774;2023-02-23T03:56:27;101133.53;;;7.58;100.00
59951;BME280;45812;53.540;9.774;2023-02-23T03:59:17;101133.41;;;7.60;100.00
59951;BME280;45812;53.540;9.774;2023-02-23T04:02:05;101136.66;;;7.64;100.00
59951;BME280;45812;53.540;9.774;2023-02-23T04:04:53;101133.03;;;7.65;100.00
59951;BME280;45812;53.540;9.774;2023-02-23T04:07:39;101123.00;;;7.68;100.00
59951;BME280;45812;53.540;9.774;2023-02-23T04:10:24;101135.53;;;7.66;100.00
59951;BME280;45812;53.540;9.774;2023-02-23T04:13:13;101130.25;;;7.66;100.00
59951;BME280;45812;53.540;9.774;2023-02-23T04:15:54;101131.22;;;7.65;100.00
59951;BME280;45812;53.540;9.774;2023-02-23T04:18:23;101126.34;;;7.70;100.00
59951;BME280;45812;53.540;9.774;2023-02-23T04:20:50;101130.66;;;7.71;100.00
59951;BME280;45812;53.540;9.774;2023-02-23T04:23:15;101126.06;;;7.73;100.00
59951;BME280;45812;53.540;9.774;2023-02-23T04:25:41;101122.16;;;7.77;100.00
59951;BME280;45812;53.540;9.774;2023-02-23T04:28:06;101129.97;;;7.79;100.00
59951;BME280;45812;53.540;9.774;2023-02-23T04:30:32;101133.91;;;7.84;100.00
59951;BME280;45812;53.540;9.774;2023-02-23T04:32:57;101132.50;;;7.90;100.00
59951;BME280;45812;53.540;9.774;2023-02-23T04:35:23;101130.41;;;7.94;100.00
59951;BME280;45812;53.540;9.774;2023-02-23T04:37:49;101134.75;;;7.95;100.00
59951;BME280;45812;53.540;9.774;2023-02-23T04:40:14;101134.31;;;7.99;100.00
59951;BME280;45812;53.540;9.774;2023-02-23T04:42:40;101132.25;;;8.03;100.00
59951;BME280;45812;53.540;9.774;2023-02-23T04:45:06;101137.44;;;7.54;100.00
59951;BME280;45812;53.540;9.774;2023-02-23T04:47:32;101131.53;;;7.41;100.00
59951;BME280;45812;53.540;9.774;2023-02-23T04:49:57;101133.75;;;7.36;100.00
59951;BME280;45812;53.540;9.774;2023-02-23T04:52:22;101132.34;;;7.32;100.00
59951;BME280;45812;53.540;9.774;2023-02-23T04:54:48;101135.00;;;7.32;100.00
59951;BME280;45812;53.540;9.774;2023-02-23T04:57:13;101125.53;;;7.29;100.00
59951;BME280;45812;53.540;9.774;2023-02-23T04:59:38;101130.13;;;7.27;100.00
59951;BME280;45812;53.540;9.774;2023-02-23T05:02:04;101132.75;;;7.27;100.00
59951;BME280;45812;53.540;9.774;2023-02-23T05:04:30;101132.91;;;7.26;100.00
59951;BME280;45812;53.540;9.774;2023-02-23T05:06:56;101131.47;;;7.22;100.00
59951;BME280;45812;53.540;9.774;2023-02-23T05:09:21;101134.81;;;7.24;100.00
59951;BME280;45812;53.540;9.774;2023-02-23T05:11:46;101135.22;;;7.19;100.00
59951;BME280;45812;53.540;9.774;2023-02-23T05:14:11;101143.59;;;7.24;100.00
59951;BME280;45812;53.540;9.774;2023-02-23T05:16:37;101139.88;;;7.27;100.00
59951;BME280;45812;53.540;9.774;2023-02-23T05:19:03;101145.72;;;7.31;100.00
59951;BME280;45812;53.540;9.774;2023-02-23T05:21:28;101139.59;;;7.30;100.00
59951;BME280;45812;53.540;9.774;2023-02-23T05:23:54;101135.56;;;7.36;100.00
59951;BME280;45812;53.540;9.774;2023-02-23T05:26:20;101139.63;;;7.40;100.00
59951;BME280;45812;53.540;9.774;2023-02-23T05:28:46;101137.09;;;7.38;100.00
59951;BME280;45812;53.540;9.774;2023-02-23T05:31:11;101137.81;;;7.40;100.00
59951;BME280;45812;53.540;9.774;2023-02-23T05:33:37;101139.34;;;7.43;100.00
59951;BME280;45812;53.540;9.774;2023-02-23T05:36:07;101144.78;;;7.41;100.00
59951;BME280;45812;53.540;9.774;2023-02-23T05:38:33;101145.25;;;7.46;100.00
59951;BME280;45812;53.540;9.774;2023-02-23T05:40:58;101146.78;;;7.49;100.00
59951;BME280;45812;53.540;9.774;2023-02-23T05:43:28;101148.44;;;7.50;100.00
59951;BME280;45812;53.540;9.774;2023-02-23T05:45:53;101148.19;;;7.53;100.00
59951;BME280;45812;53.540;9.774;2023-02-23T05:48:18;101150.13;;;7.51;100.00
59951;BME280;45812;53.540;9.774;2023-02-23T05:50:43;101145.38;;;7.45;100.00
59951;BME280;45812;53.540;9.774;2023-02-23T05:53:09;101144.91;;;7.40;100.00
59951;BME280;45812;53.540;9.774;2023-02-23T05:55:35;101147.84;;;7.37;100.00
59951;BME280;45812;53.540;9.774;2023-02-23T05:58:00;101146.28;;;7.34;100.00
59951;BME280;45812;53.540;9.774;2023-02-23T06:00:25;101144.91;;;7.40;100.00
59951;BME280;45812;53.540;9.774;2023-02-23T06:02:50;101148.03;;;7.45;100.00
59951;BME280;45812;53.540;9.774;2023-02-23T06:05:17;101153.31;;;7.45;100.00
59951;BME280;45812;53.540;9.774;2023-02-23T06:07:43;101150.06;;;7.41;100.00
59951;BME280;45812;53.540;9.774;2023-02-23T06:10:09;101149.66;;;7.36;100.00
59951;BME280;45812;53.540;9.774;2023-02-23T06:12:34;101158.00;;;7.32;100.00
59951;BME280;45812;53.540;9.774;2023-02-23T06:14:59;101168.59;;;7.32;100.00
59951;BME280;45812;53.540;9.774;2023-02-23T06:17:25;101163.69;;;7.27;100.00
59951;BME280;45812;53.540;9.774;2023-02-23T06:19:50;101161.56;;;7.21;100.00
59951;BME280;45812;53.540;9.774;2023-02-23T06:22:15;101162.03;;;7.26;100.00
59951;BME280;45812;53.540;9.774;2023-02-23T06:24:42;101176.25;;;7.35;100.00
59951;BME280;45812;53.540;9.774;2023-02-23T06:27:07;101171.41;;;7.40;100.00
59951;BME280;45812;53.540;9.774;2023-02-23T06:29:32;101169.59;;;7.40;100.00
59951;BME280;45812;53.540;9.774;2023-02-23T06:31:58;101168.47;;;7.43;100.00
59951;BME280;45812;53.540;9.774;2023-02-23T06:34:24;101174.81;;;7.51;100.00
59951;BME280;45812;53.540;9.774;2023-02-23T06:36:49;101174.09;;;7.49;100.00
59951;BME280;45812;53.540;9.774;2023-02-23T06:39:14;101177.44;;;7.51;100.00
59951;BME280;45812;53.540;9.774;2023-02-23T06:41:39;101182.34;;;7.56;100.00
59951;BME280;45812;53.540;9.774;2023-02-23T06:44:05;101189.31;;;7.57;100.00
59951;BME280;45812;53.540;9.774;2023-02-23T06:46:30;101187.22;;;7.60;100.00
59951;BME280;45812;53.540;9.774;2023-02-23T06:48:57;101191.19;;;7.66;100.00
59951;BME280;45812;53.540;9.774;2023-02-23T06:51:23;101186.84;;;7.65;100.00
59951;BME280;45812;53.540;9.774;2023-02-23T06:53:49;101190.47;;;7.64;100.00
59951;BME280;45812;53.540;9.774;2023-02-23T06:56:14;101193.25;;;7.63;100.00
59951;BME280;45812;53.540;9.774;2023-02-23T06:58:40;101191.31;;;7.65;100.00
59951;BME280;45812;53.540;9.774;2023-02-23T07:01:07;101196.47;;;7.66;100.00
59951;BME280;45812;53.540;9.774;2023-02-23T07:03:32;101197.19;;;7.68;100.00
59951;BME280;45812;53.540;9.774;2023-02-23T07:05:59;101208.91;;;7.75;100.00
59951;BME280;45812;53.540;9.774;2023-02-23T07:08:24;101204.31;;;7.77;100.00
59951;BME280;45812;53.540;9.774;2023-02-23T07:10:49;101214.63;;;7.80;100.00
59951;BME280;45812;53.540;9.774;2023-02-23T07:13:14;101209.34;;;7.80;100.00
59951;BME280;45812;53.540;9.774;2023-02-23T07:15:40;101216.75;;;7.86;100.00
59951;BME280;45812;53.540;9.774;2023-02-23T07:18:06;101218.44;;;7.87;100.00
59951;BME280;45812;53.540;9.774;2023-02-23T07:20:32;101222.50;;;7.92;100.00
59951;BME280;45812;53.540;9.774;2023-02-23T07:22:58;101220.25;;;7.97;100.00
59951;BME280;45812;53.540;9.774;2023-02-23T07:25:25;101222.66;;;8.00;100.00
59951;BME280;45812;53.540;9.774;2023-02-23T07:27:50;101224.34;;;8.01;100.00
59951;BME280;45812;53.540;9.774;2023-02-23T07:30:18;101229.25;;;8.15;100.00
59951;BME280;45812;53.540;9.774;2023-02-23T07:32:43;101230.38;;;8.22;100.00
59951;BME280;45812;53.540;9.774;2023-02-23T07:35:09;101226.72;;;8.13;100.00
59951;BME280;45812;53.540;9.774;2023-02-23T07:37:34;101232.59;;;8.17;100.00
59951;BME280;45812;53.540;9.774;2023-02-23T07:39:59;101236.91;;;8.18;100.00
59951;BME280;45812;53.540;9.774;2023-02-23T07:42:24;101230.66;;;8.19;100.00
59951;BME280;45812;53.540;9.774;2023-02-23T07:44:50;101230.38;;;8.32;100.00
59951;BME280;45812;53.540;9.774;2023-02-23T07:47:16;101234.44;;;8.26;100.00
59951;BME280;45812;53.540;9.774;2023-02-23T07:49:41;101240.16;;;8.22;100.00
59951;BME280;45812;53.540;9.774;2023-02-23T07:52:06;101239.41;;;8.60;100.00
59951;BME280;45812;53.540;9.774;2023-02-23T07:54:32;101243.84;;;8.49;100.00
59951;BME280;45812;53.540;9.774;2023-02-23T07:56:57;101248.88;;;8.53;100.00
59951;BME280;45812;53.540;9.774;2023-02-23T07:59:23;101245.97;;;8.56;100.00
59951;BME280;45812;53.540;9.774;2023-02-23T08:01:48;101260.88;;;8.47;100.00
59951;BME280;45812;53.540;9.774;2023-02-23T08:04:15;101256.41;;;8.38;100.00
59951;BME280;45812;53.540;9.774;2023-02-23T08:06:41;101262.56;;;8.38;100.00
59951;BME280;45812;53.540;9.774;2023-02-23T08:09:06;101258.03;;;8.19;100.00
59951;BME280;45812;53.540;9.774;2023-02-23T08:11:31;101259.56;;;8.32;100.00
59951;BME280;45812;53.540;9.774;2023-02-23T08:13:57;101262.06;;;8.33;100.00
59951;BME280;45812;53.540;9.774;2023-02-23T08:16:29;101262.34;;;8.30;100.00
59951;BME280;45812;53.540;9.774;2023-02-23T08:18:58;101258.44;;;8.25;100.00
59951;BME280;45812;53.540;9.774;2023-02-23T08:21:25;101258.03;;;8.29;100.00
59951;BME280;45812;53.540;9.774;2023-02-23T08:23:51;101264.59;;;8.25;100.00
59951;BME280;45812;53.540;9.774;2023-02-23T08:26:16;101263.97;;;8.12;100.00
59951;BME280;45812;53.540;9.774;2023-02-23T08:28:42;101264.09;;;8.01;100.00
59951;BME280;45812;53.540;9.774;2023-02-23T08:31:11;101266.91;;;8.09;100.00
59951;BME280;45812;53.540;9.774;2023-02-23T08:33:36;101270.25;;;8.11;100.00
59951;BME280;45812;53.540;9.774;2023-02-23T08:36:04;101268.31;;;8.03;100.00
59951;BME280;45812;53.540;9.774;2023-02-23T08:38:30;101272.56;;;7.95;100.00
59951;BME280;45812;53.540;9.774;2023-02-23T08:40:59;101269.84;;;8.15;100.00
59951;BME280;45812;53.540;9.774;2023-02-23T08:43:24;101269.00;;;8.15;100.00
59951;BME280;45812;53.540;9.774;2023-02-23T08:45:49;101268.38;;;7.92;100.00
59951;BME280;45812;53.540;9.774;2023-02-23T08:48:14;101270.59;;;7.87;100.00
59951;BME280;45812;53.540;9.774;2023-02-23T08:50:39;101279.25;;;7.89;100.00
59951;BME280;45812;53.540;9.774;2023-02-23T08:53:05;101278.72;;;7.95;100.00
59951;BME280;45812;53.540;9.774;2023-02-23T08:55:31;101275.44;;;8.12;100.00
59951;BME280;45812;53.540;9.774;2023-02-23T08:57:59;101276.53;;;8.10;100.00
59951;BME280;45812;53.540;9.774;2023-02-23T09:00:24;101265.38;;;8.06;100.00
59951;BME280;45812;53.540;9.774;2023-02-23T09:02:49;101269.28;;;8.12;100.00
59951;BME280;45812;53.540;9.774;2023-02-23T09:05:15;101275.94;;;7.97;100.00
59951;BME280;45812;53.540;9.774;2023-02-23T09:07:41;101277.59;;;7.98;100.00
59951;BME280;45812;53.540;9.774;2023-02-23T09:10:12;101279.28;;;7.99;100.00
59951;BME280;45812;53.540;9.774;2023-02-23T09:12:37;101280.00;;;8.01;100.00
59951;BME280;45812;53.540;9.774;2023-02-23T09:15:03;101279.13;;;7.90;100.00
59951;BME280;45812;53.540;9.774;2023-02-23T09:17:28;101275.13;;;8.06;100.00
59951;BME280;45812;53.540;9.774;2023-02-23T09:19:54;101279.81;;;7.93;100.00
59951;BME280;45812;53.540;9.774;2023-02-23T09:22:19;101279.56;;;7.96;100.00
59951;BME280;45812;53.540;9.774;2023-02-23T09:24:44;101283.03;;;7.96;100.00
59951;BME280;45812;53.540;9.774;2023-02-23T09:27:09;101285.34;;;7.80;100.00
59951;BME280;45812;53.540;9.774;2023-02-23T09:29:37;101290.97;;;7.86;100.00
59951;BME280;45812;53.540;9.774;2023-02-23T09:32:05;101281.94;;;7.99;100.00
59951;BME280;45812;53.540;9.774;2023-02-23T09:34:30;101283.09;;;8.06;100.00
59951;BME280;45812;53.540;9.774;2023-02-23T09:36:56;101280.00;;;8.01;100.00
59951;BME280;45812;53.540;9.774;2023-02-23T09:39:21;101288.41;;;8.06;100.00
59951;BME280;45812;53.540;9.774;2023-02-23T09:42:02;101285.38;;;8.20;100.00
59951;BME280;45812;53.540;9.774;2023-02-23T09:47:27;101290.63;;;8.50;100.00
59951;BME280;45812;53.540;9.774;2023-02-23T09:49:56;101291.34;;;8.62;100.00
59951;BME280;45812;53.540;9.774;2023-02-23T09:52:25;101292.06;;;8.74;100.00
59951;BME280;45812;53.540;9.774;2023-02-23T09:54:52;101306.03;;;8.86;100.00
59951;BME280;45812;53.540;9.774;2023-02-23T09:57:21;101304.38;;;8.75;100.00
59951;BME280;45812;53.540;9.774;2023-02-23T09:59:48;101302.06;;;8.51;100.00
59951;BME280;45812;53.540;9.774;2023-02-23T10:02:23;101308.78;;;8.45;100.00
59951;BME280;45812;53.540;9.774;2023-02-23T10:05:01;101299.34;;;8.22;100.00
59951;BME280;45812;53.540;9.774;2023-02-23T10:07:49;101305.19;;;8.26;100.00
59951;BME280;45812;53.540;9.774;2023-02-23T10:16:36;101308.84;;;7.94;100.00
59951;BME280;45812;53.540;9.774;2023-02-23T10:18:50;101308.91;;;8.04;100.00
59951;BME280;45812;53.540;9.774;2023-02-23T10:21:39;101306.63;;;7.99;100.00
59951;BME280;45812;53.540;9.774;2023-02-23T10:24:17;101304.84;;;8.00;100.00
59951;BME280;45812;53.540;9.774;2023-02-23T10:26:49;101310.00;;;8.01;100.00
59951;BME280;45812;53.540;9.774;2023-02-23T10:29:28;101309.34;;;8.09;100.00
59951;BME280;45812;53.540;9.774;2023-02-23T10:31:59;101315.34;;;8.11;100.00
59951;BME280;45812;53.540;9.774;2023-02-23T10:34:26;101310.66;;;7.94;100.00
59951;BME280;45812;53.540;9.774;2023-02-23T10:37:01;101317.78;;;7.93;100.00
59951;BME280;45812;53.540;9.774;2023-02-23T10:39:31;101313.28;;;7.84;100.00
59951;BME280;45812;53.540;9.774;2023-02-23T10:41:58;101316.31;;;7.79;100.00
59951;BME280;45812;53.540;9.774;2023-02-23T10:44:27;101313.28;;;7.84;100.00
59951;BME280;45812;53.540;9.774;2023-02-23T10:47:08;101319.50;;;7.73;100.00
59951;BME280;45812;53.540;9.774;2023-02-23T10:49:44;101310.78;;;7.82;100.00
59951;BME280;45812;53.540;9.774;2023-02-23T10:52:11;101314.81;;;7.86;100.00
59951;BME280;45812;53.540;9.774;2023-02-23T10:54:44;101319.16;;;7.87;100.00
59951;BME280;45812;53.540;9.774;2023-02-23T10:57:18;101324.63;;;7.65;100.00
59951;BME280;45812;53.540;9.774;2023-02-23T11:02:29;101318.13;;;7.79;100.00
59951;BME280;45812;53.540;9.774;2023-02-23T11:04:56;101325.31;;;7.98;100.00
59951;BME280;45812;53.540;9.774;2023-02-23T11:07:25;101315.13;;;8.24;100.00
59951;BME280;45812;53.540;9.774;2023-02-23T11:09:53;101322.03;;;8.45;100.00
59951;BME280;45812;53.540;9.774;2023-02-23T11:12:23;101323.06;;;8.64;100.00
59951;BME280;45812;53.540;9.774;2023-02-23T11:14:56;101319.59;;;9.12;100.00
59951;BME280;45812;53.540;9.774;2023-02-23T11:17:33;101313.09;;;9.53;100.00
59951;BME280;45812;53.540;9.774;2023-02-23T11:20:20;101310.19;;;9.93;100.00
59951;BME280;45812;53.540;9.774;2023-02-23T11:22:48;101303.50;;;10.16;96.88
59951;BME280;45812;53.540;9.774;2023-02-23T11:25:22;101310.09;;;10.40;94.22
59951;BME280;45812;53.540;9.774;2023-02-23T11:27:49;101310.09;;;10.67;93.04
59951;BME280;45812;53.540;9.774;2023-02-23T11:30:19;101306.66;;;10.92;92.68
59951;BME280;45812;53.540;9.774;2023-02-23T11:32:50;101305.16;;;11.08;90.19
59951;BME280;45812;53.540;9.774;2023-02-23T11:37:44;101304.16;;;10.91;88.21
59951;BME280;45812;53.540;9.774;2023-02-23T11:45:27;101303.69;;;10.42;89.41
59951;BME280;45812;53.540;9.774;2023-02-23T11:47:57;101300.91;;;10.34;89.99
59951;BME280;45812;53.540;9.774;2023-02-23T11:50:32;101299.53;;;10.20;90.50
59951;BME280;45812;53.540;9.774;2023-02-23T11:53:04;101294.63;;;9.98;92.92
59951;BME280;45812;53.540;9.774;2023-02-23T11:55:31;101295.00;;;10.03;93.43
59951;BME280;45812;53.540;9.774;2023-02-23T12:00:42;101292.25;;;9.95;94.07
59951;BME280;45812;53.540;9.774;2023-02-23T12:03:16;101288.16;;;10.00;92.89
59951;BME280;45812;53.540;9.774;2023-02-23T12:05:49;101288.22;;;9.91;92.07
59951;BME280;45812;53.540;9.774;2023-02-23T12:08:24;101289.66;;;9.76;93.20
59951;BME280;45812;53.540;9.774;2023-02-23T12:10:57;101296.06;;;9.83;92.67
59951;BME280;45812;53.540;9.774;2023-02-23T12:15:53;101280.88;;;9.65;93.76
59951;BME280;45812;53.540;9.774;2023-02-23T12:18:53;101285.50;;;9.63;93.18
59951;BME280;45812;53.540;9.774;2023-02-23T12:21:33;101278.81;;;9.59;94.85
59951;BME280;45812;53.540;9.774;2023-02-23T12:24:14;101291.00;;;9.52;96.26
59951;BME280;45812;53.540;9.774;2023-02-23T12:26:50;101286.78;;;9.59;94.93
59951;BME280;45812;53.540;9.774;2023-02-23T12:29:26;101289.00;;;9.64;93.58
59951;BME280;45812;53.540;9.774;2023-02-23T12:31:58;101291.25;;;9.68;95.00
59951;BME280;45812;53.540;9.774;2023-02-23T12:34:38;101288.44;;;9.70;94.21
59951;BME280;45812;53.540;9.774;2023-02-23T12:39:55;101284.28;;;9.58;93.33
59951;BME280;45812;53.540;9.774;2023-02-23T12:44:53;101291.13;;;9.60;93.44
59951;BME280;45812;53.540;9.774;2023-02-23T12:47:32;101285.25;;;9.57;94.25
59951;BME280;45812;53.540;9.774;2023-02-23T12:50:03;101287.00;;;9.76;93.60
59951;BME280;45812;53.540;9.774;2023-02-23T12:52:43;101287.59;;;9.69;93.34
59951;BME280;45812;53.540;9.774;2023-02-23T12:55:12;101281.88;;;9.64;93.17
59951;BME280;45812;53.540;9.774;2023-02-23T12:57:45;101278.56;;;9.53;94.59
59951;BME280;45812;53.540;9.774;2023-02-23T13:03:50;101280.47;;;9.60;95.00
59951;BME280;45812;53.540;9.774;2023-02-23T13:14:40;101272.78;;;9.67;94.75
59951;BME280;45812;53.540;9.774;2023-02-23T13:17:37;101271.53;;;9.61;96.92
59951;BME280;45812;53.540;9.774;2023-02-23T13:20:16;101279.13;;;9.84;94.65
59951;BME280;45812;53.540;9.774;2023-02-23T13:22:52;101271.44;;;9.90;94.24
59951;BME280;45812;53.540;9.774;2023-02-23T13:25:28;101267.25;;;9.88;94.86
59951;BME280;45812;53.540;9.774;2023-02-23T13:27:59;101266.94;;;9.91;94.99
59951;BME280;45812;53.540;9.774;2023-02-23T13:30:28;101269.91;;;9.88;93.21
59951;BME280;45812;53.540;9.774;2023-02-23T13:32:56;101264.84;;;9.85;92.39
59951;BME280;45812;53.540;9.774;2023-02-23T13:35:24;101271.44;;;9.81;93.00
59951;BME280;45812;53.540;9.774;2023-02-23T13:37:59;101279.34;;;9.73;91.93
59951;BME280;45812;53.540;9.774;2023-02-23T13:40:35;101269.38;;;9.75;92.36
59951;BME280;45812;53.540;9.774;2023-02-23T13:43:24;101264.75;;;9.77;92.55
59951;BME280;45812;53.540;9.774;2023-02-23T13:46:17;101265.91;;;9.74;91.10
59951;BME280;45812;53.540;9.774;2023-02-23T13:49:13;101261.16;;;9.68;91.33
59951;BME280;45812;53.540;9.774;2023-02-23T13:51:44;101265.13;;;9.54;90.56
59951;BME280;45812;53.540;9.774;2023-02-23T13:56:53;101260.94;;;9.42;92.01
59951;BME280;45812;53.540;9.774;2023-02-23T13:59:25;101260.66;;;9.45;91.48
59951;BME280;45812;53.540;9.774;2023-02-23T14:01:53;101259.03;;;9.34;91.96
59951;BME280;45812;53.540;9.774;2023-02-23T14:07:01;101252.47;;;9.19;94.53
59951;BME280;45812;53.540;9.774;2023-02-23T14:09:30;101259.63;;;9.19;94.75